createdAt,value
2019-05-03T00:02:39.314Z,25.10
2019-05-03T00:05:26.587Z,23.47
2019-05-03T00:08:04.178Z,24.83
2019-05-03T00:10:33.622Z,23.20
2019-05-03T00:13:02.875Z,23.47
2019-05-03T00:15:57.362Z,25.10
2019-05-03T00:18:26.600Z,22.97
2019-05-03T00:20:55.921Z,24.30
2019-05-03T00:23:25.247Z,25.07
2019-05-03T00:25:54.507Z,26.43
2019-05-03T00:28:23.760Z,24.03
2019-05-03T00:30:53.045Z,24.50
2019-05-03T00:33:22.640Z,21.30
2019-05-03T00:36:22.118Z,23.67
2019-05-03T00:38:53.537Z,20.57
2019-05-03T00:41:22.803Z,18.90
2019-05-03T00:43:52.113Z,18.70
2019-05-03T00:46:22.041Z,18.03
2019-05-03T00:48:52.471Z,16.20
2019-05-03T00:51:22.578Z,16.47
2019-05-03T00:53:53.108Z,16.00
2019-05-03T00:56:22.692Z,17.23
2019-05-03T00:58:55.809Z,16.10
2019-05-03T01:01:25.065Z,16.63
2019-05-03T01:03:54.324Z,15.87
2019-05-03T01:06:23.663Z,17.03
2019-05-03T01:08:52.929Z,16.30
2019-05-03T01:11:22.428Z,16.07
2019-05-03T01:13:52.343Z,16.10
2019-05-03T01:16:22.807Z,16.77
2019-05-03T01:18:52.446Z,18.07
2019-05-03T01:21:22.545Z,16.40
2019-05-03T01:23:52.553Z,17.93
2019-05-03T01:26:22.841Z,17.03
2019-05-03T01:28:52.541Z,18.93
2019-05-03T01:31:22.724Z,20.83
2019-05-03T01:33:52.639Z,17.40
2019-05-03T01:36:22.940Z,14.80
2019-05-03T01:38:52.975Z,10.20
2019-05-03T01:41:22.742Z,12.53
2019-05-03T01:43:52.580Z,10.33
2019-05-03T01:46:22.864Z,9.93
2019-05-03T01:49:23.351Z,10.07
2019-05-03T01:52:18.702Z,10.33
2019-05-03T01:54:47.957Z,11.77
2019-05-03T01:57:17.298Z,10.93
2019-05-03T01:59:46.526Z,12.17
2019-05-03T02:02:27.939Z,10.57
2019-05-03T02:05:32.018Z,9.47
2019-05-03T02:08:02.089Z,12.47
2019-05-03T02:10:32.152Z,12.73
2019-05-03T02:13:02.091Z,9.30
2019-05-03T02:15:32.672Z,9.90
2019-05-03T02:18:02.701Z,10.60
2019-05-03T02:20:32.456Z,9.97
2019-05-03T02:23:02.747Z,10.37
2019-05-03T02:25:32.484Z,13.40
2019-05-03T02:28:02.034Z,11.10
2019-05-03T02:30:33.275Z,11.67
2019-05-03T02:33:04.137Z,11.80
2019-05-03T02:35:33.582Z,11.53
2019-05-03T02:38:03.527Z,8.23
2019-05-03T02:40:33.919Z,13.83
2019-05-03T02:43:10.929Z,11.40
2019-05-03T02:45:57.687Z,12.83
2019-05-03T02:48:36.232Z,14.03
2019-05-03T02:51:06.636Z,12.50
2019-05-03T02:53:36.053Z,15.77
2019-05-03T02:56:15.057Z,15.60
2019-05-03T02:58:36.488Z,14.07
2019-05-03T03:01:06.825Z,14.00
2019-05-03T03:03:36.710Z,12.87
2019-05-03T03:06:07.381Z,15.57
2019-05-03T03:08:38.629Z,14.03
2019-05-03T03:11:08.804Z,16.60
2019-05-03T03:13:39.550Z,15.70
2019-05-03T03:16:10.146Z,17.27
2019-05-03T03:18:40.699Z,15.10
2019-05-03T03:21:16.036Z,19.07
2019-05-03T03:24:05.901Z,20.87
2019-05-03T03:26:42.108Z,21.47
2019-05-03T03:29:08.664Z,23.90
2019-05-03T03:31:51.375Z,22.27
2019-05-03T03:34:28.021Z,21.50
2019-05-03T03:37:04.235Z,29.03
2019-05-03T03:39:26.709Z,23.90
2019-05-03T03:41:57.461Z,29.10
2019-05-03T03:44:27.819Z,30.70
2019-05-03T03:46:58.933Z,29.80
2019-05-03T03:49:29.795Z,26.23
2019-05-03T03:52:00.869Z,30.97
2019-05-03T03:54:35.464Z,27.57
2019-05-03T03:57:08.110Z,25.80
2019-05-03T03:59:36.899Z,27.37
2019-05-03T04:02:06.256Z,29.33
2019-05-03T04:04:36.137Z,26.33
2019-05-03T04:07:06.754Z,26.83
2019-05-03T04:09:36.901Z,23.67
2019-05-03T04:12:06.511Z,26.10
2019-05-03T04:14:49.058Z,25.30
2019-05-03T04:17:36.338Z,24.13
2019-05-03T04:20:06.481Z,24.47
2019-05-03T04:22:36.315Z,21.83
2019-05-03T04:25:06.024Z,22.23
2019-05-03T04:27:36.554Z,22.67
2019-05-03T04:30:06.311Z,22.07
2019-05-03T04:32:35.986Z,22.07
2019-05-03T04:35:05.610Z,24.27
2019-05-03T04:37:35.966Z,20.73
2019-05-03T04:40:06.296Z,22.50
2019-05-03T04:42:36.015Z,20.63
2019-05-03T04:45:05.980Z,20.53
2019-05-03T04:47:35.868Z,21.73
2019-05-03T04:50:05.737Z,19.27
2019-05-03T04:52:36.191Z,21.03
2019-05-03T04:55:06.564Z,19.97
2019-05-03T04:57:44.234Z,20.63
2019-05-03T05:00:11.439Z,20.80
2019-05-03T05:02:39.766Z,23.27
2019-05-03T05:05:09.175Z,23.57
2019-05-03T05:07:38.565Z,23.03
2019-05-03T05:10:07.969Z,26.13
2019-05-03T05:12:37.236Z,23.23
2019-05-03T05:15:06.718Z,27.23
2019-05-03T05:17:45.736Z,23.93
2019-05-03T05:20:27.499Z,28.30
2019-05-03T05:22:56.777Z,25.00
2019-05-03T05:25:27.942Z,23.40
2019-05-03T05:28:06.920Z,26.67
2019-05-03T05:30:36.239Z,27.10
2019-05-03T05:33:07.265Z,24.67
2019-05-03T05:35:36.774Z,23.47
2019-05-03T05:38:06.075Z,22.93
2019-05-03T05:40:35.462Z,22.03
2019-05-03T05:43:05.063Z,24.57
2019-05-03T05:45:34.784Z,22.10
2019-05-03T05:48:07.972Z,22.30
2019-05-03T05:50:40.055Z,23.13
2019-05-03T05:53:09.423Z,24.57
2019-05-03T05:55:52.680Z,21.23
2019-05-03T05:58:29.273Z,24.53
2019-05-03T06:01:02.222Z,22.83
2019-05-03T06:03:31.574Z,22.60
2019-05-03T06:06:05.264Z,21.67
2019-05-03T06:08:40.977Z,24.27
2019-05-03T06:11:29.237Z,26.07
2019-05-03T06:14:06.819Z,24.53
2019-05-03T06:16:45.543Z,23.10
2019-05-03T06:19:19.051Z,21.57
2019-05-03T06:21:54.822Z,26.40
2019-05-03T06:24:38.938Z,25.83
2019-05-03T06:27:27.174Z,23.13
2019-05-03T06:29:58.672Z,24.50
2019-05-03T06:32:32.020Z,25.10
2019-05-03T06:35:01.247Z,24.60
2019-05-03T06:37:35.434Z,24.00
2019-05-03T06:40:06.166Z,28.90
2019-05-03T06:42:35.627Z,23.17
2019-05-03T06:45:10.479Z,25.00
2019-05-03T06:47:40.296Z,22.33
2019-05-03T06:50:07.421Z,25.50
2019-05-03T06:52:36.846Z,24.10
2019-05-03T06:55:10.640Z,20.13
2019-05-03T06:57:40.129Z,19.53
2019-05-03T07:00:32.321Z,19.77
2019-05-03T07:03:25.160Z,16.97
2019-05-03T07:06:32.601Z,16.07
2019-05-03T07:09:07.584Z,15.40
2019-05-03T07:11:36.802Z,14.47
2019-05-03T07:14:06.090Z,15.37
2019-05-03T07:16:35.582Z,13.40
2019-05-03T07:19:04.930Z,11.97
2019-05-03T07:21:35.409Z,12.03
2019-05-03T07:24:05.413Z,10.77
2019-05-03T07:26:34.868Z,11.07
2019-05-03T07:29:04.980Z,10.03
2019-05-03T07:31:35.352Z,10.67
2019-05-03T07:34:05.213Z,11.93
2019-05-03T07:36:35.601Z,12.40
2019-05-03T07:39:07.605Z,10.70
2019-05-03T07:41:36.855Z,8.53
2019-05-03T07:44:06.111Z,9.20
2019-05-03T07:46:35.492Z,11.13
2019-05-03T07:49:05.249Z,8.07
2019-05-03T07:51:34.907Z,7.77
2019-05-03T07:54:04.848Z,8.00
2019-05-03T07:56:41.863Z,6.13
2019-05-03T07:59:11.130Z,6.37
2019-05-03T08:01:45.620Z,7.90
2019-05-03T08:04:15.403Z,6.97
2019-05-03T08:06:45.058Z,8.57
2019-05-03T08:09:15.281Z,6.93
2019-05-03T08:11:44.699Z,6.60
2019-05-03T08:14:17.723Z,6.80
2019-05-03T08:16:45.601Z,8.57
2019-05-03T08:19:15.315Z,5.53
2019-05-03T08:21:45.283Z,5.80
2019-05-03T08:24:15.054Z,5.90
2019-05-03T08:26:45.292Z,9.27
2019-05-03T08:29:18.549Z,7.77
2019-05-03T08:31:57.165Z,7.23
2019-05-03T08:35:00.606Z,6.77
2019-05-03T08:38:00.915Z,7.43
2019-05-03T08:40:34.976Z,6.50
2019-05-03T08:43:05.158Z,7.27
2019-05-03T08:45:35.103Z,5.40
2019-05-03T08:48:05.561Z,5.23
2019-05-03T08:50:35.100Z,8.10
2019-05-03T08:53:05.245Z,8.27
2019-05-03T08:55:35.261Z,7.00
2019-05-03T08:58:05.247Z,6.67
2019-05-03T09:00:37.226Z,5.83
2019-05-03T09:03:06.579Z,6.93
2019-05-03T09:05:36.133Z,9.37
2019-05-03T09:08:05.920Z,7.83
2019-05-03T09:10:55.888Z,8.07
2019-05-03T09:13:25.295Z,10.93
2019-05-03T09:15:55.289Z,5.50
2019-05-03T09:18:25.772Z,5.20
2019-05-03T09:20:55.616Z,6.07
2019-05-03T09:23:26.051Z,4.27
2019-05-03T09:25:55.613Z,4.47
2019-05-03T09:28:26.459Z,6.13
2019-05-03T09:30:55.935Z,6.00
2019-05-03T09:33:25.800Z,5.87
2019-05-03T09:35:55.203Z,6.70
2019-05-03T09:38:25.622Z,5.03
2019-05-03T09:40:55.128Z,4.83
2019-05-03T09:43:25.087Z,6.40
2019-05-03T09:45:54.814Z,6.40
2019-05-03T09:48:25.439Z,6.63
2019-05-03T09:50:55.638Z,6.70
2019-05-03T09:53:27.390Z,4.40
2019-05-03T09:55:56.664Z,6.23
2019-05-03T09:58:26.426Z,11.23
2019-05-03T10:00:55.995Z,8.43
2019-05-03T10:03:25.535Z,4.07
2019-05-03T10:05:55.396Z,6.10
2019-05-03T10:08:25.408Z,7.13
2019-05-03T10:11:15.634Z,7.07
2019-05-03T10:13:48.363Z,5.80
2019-05-03T10:16:15.834Z,5.60
2019-05-03T10:18:46.143Z,5.43
2019-05-03T10:21:15.515Z,4.80
2019-05-03T10:23:45.390Z,6.57
2019-05-03T10:26:15.163Z,4.47
2019-05-03T10:28:44.685Z,4.53
2019-05-03T10:31:14.682Z,6.70
2019-05-03T10:33:58.685Z,7.20
2019-05-03T10:36:27.961Z,7.10
2019-05-03T10:38:57.344Z,4.87
2019-05-03T10:41:26.711Z,5.67
2019-05-03T10:43:56.171Z,10.83
2019-05-03T10:46:25.606Z,7.17
2019-05-03T10:48:55.761Z,6.13
2019-05-03T10:51:27.299Z,5.70
2019-05-03T10:53:59.279Z,9.40
2019-05-03T10:56:55.927Z,6.37
2019-05-03T10:59:25.534Z,6.00
2019-05-03T11:02:32.168Z,5.33
2019-05-03T11:05:01.511Z,10.40
2019-05-03T11:07:30.814Z,8.33
2019-05-03T11:10:00.148Z,8.27
2019-05-03T11:12:29.485Z,6.53
2019-05-03T11:14:58.755Z,5.63
2019-05-03T11:17:28.014Z,5.50
2019-05-03T11:19:57.301Z,7.40
2019-05-03T11:22:26.576Z,5.27
2019-05-03T11:24:55.839Z,8.97
2019-05-03T11:27:40.156Z,5.47
2019-05-03T11:30:09.833Z,7.80
2019-05-03T11:32:55.474Z,7.20
2019-05-03T11:35:41.983Z,7.17
2019-05-03T11:38:30.282Z,5.17
2019-05-03T11:40:59.522Z,5.10
2019-05-03T11:43:28.751Z,6.23
2019-05-03T11:45:58.126Z,7.50
2019-05-03T11:48:27.379Z,6.43
2019-05-03T11:50:56.701Z,8.80
2019-05-03T11:53:25.934Z,7.47
2019-05-03T11:55:55.440Z,3.87
2019-05-03T11:58:27.122Z,4.57
2019-05-03T12:01:20.648Z,4.30
2019-05-03T12:03:51.899Z,4.50
2019-05-03T12:06:21.159Z,6.57
2019-05-03T12:08:50.398Z,6.93
2019-05-03T12:11:19.928Z,5.33
2019-05-03T12:14:01.431Z,7.13
2019-05-03T12:16:32.138Z,3.53
2019-05-03T12:18:54.060Z,5.90
2019-05-03T12:21:23.210Z,6.23
2019-05-03T12:23:55.813Z,4.77
2019-05-03T12:26:27.138Z,5.60
2019-05-03T12:28:55.055Z,5.07
2019-05-03T12:31:36.329Z,5.27
2019-05-03T12:33:55.359Z,7.47
2019-05-03T12:36:24.809Z,5.80
2019-05-03T12:38:54.779Z,8.63
2019-05-03T12:41:25.438Z,4.30
2019-05-03T12:43:55.292Z,5.20
2019-05-03T12:46:26.194Z,5.70
2019-05-03T12:48:56.106Z,3.73
2019-05-03T12:51:25.877Z,8.27
2019-05-03T12:53:55.402Z,5.73
2019-05-03T12:56:32.334Z,6.90
2019-05-03T12:59:02.028Z,5.73
2019-05-03T13:01:48.214Z,6.13
2019-05-03T13:04:20.652Z,5.83
2019-05-03T13:06:56.554Z,6.17
2019-05-03T13:09:26.116Z,6.47
2019-05-03T13:11:59.162Z,8.23
2019-05-03T13:14:27.748Z,6.53
2019-05-03T13:16:57.231Z,6.20
2019-05-03T13:19:26.612Z,5.40
2019-05-03T13:21:56.224Z,5.20
2019-05-03T13:24:26.101Z,5.27
2019-05-03T13:26:55.578Z,3.57
2019-05-03T13:29:25.605Z,4.23
2019-05-03T13:32:01.620Z,5.50
2019-05-03T13:34:26.592Z,5.97
2019-05-03T13:36:56.327Z,5.70
2019-05-03T13:39:27.607Z,4.80
2019-05-03T13:41:57.933Z,6.97
2019-05-03T13:44:27.462Z,4.10
2019-05-03T13:46:56.920Z,4.17
2019-05-03T13:49:26.694Z,5.50
2019-05-03T13:51:56.232Z,4.57
2019-05-03T13:54:25.679Z,4.23
2019-05-03T13:56:55.340Z,4.00
2019-05-03T13:59:24.809Z,5.50
2019-05-03T14:01:54.714Z,6.07
2019-05-03T14:04:24.547Z,6.53
2019-05-03T14:06:55.232Z,5.87
2019-05-03T14:09:25.138Z,5.00
2019-05-03T14:11:55.874Z,4.70
2019-05-03T14:14:25.842Z,5.70
2019-05-03T14:16:55.680Z,4.40
2019-05-03T14:19:31.780Z,5.53
2019-05-03T14:22:05.188Z,3.20
2019-05-03T14:24:35.170Z,5.27
2019-05-03T14:27:05.564Z,9.73
2019-05-03T14:29:35.123Z,5.33
2019-05-03T14:32:05.285Z,6.80
2019-05-03T14:34:35.930Z,4.97
2019-05-03T14:37:05.496Z,4.37
2019-05-03T14:39:35.137Z,5.50
2019-05-03T14:42:04.865Z,5.90
2019-05-03T14:44:35.703Z,5.13
2019-05-03T14:47:05.814Z,4.10
2019-05-03T14:49:35.525Z,4.30
2019-05-03T14:52:05.540Z,6.10
2019-05-03T14:54:36.623Z,5.43
2019-05-03T14:57:14.553Z,3.80
2019-05-03T15:00:12.263Z,4.13
2019-05-03T15:02:51.092Z,3.70
2019-05-03T15:05:21.080Z,4.33
2019-05-03T15:07:50.520Z,6.90
2019-05-03T15:10:20.300Z,4.23
2019-05-03T15:12:49.771Z,4.10
2019-05-03T15:15:19.426Z,4.50
2019-05-03T15:17:49.067Z,5.13
2019-05-03T15:20:18.478Z,4.70
2019-05-03T15:22:47.930Z,4.47
2019-05-03T15:25:17.453Z,2.90
2019-05-03T15:27:48.586Z,10.67
2019-05-03T15:30:18.968Z,3.43
2019-05-03T15:32:57.671Z,6.57
2019-05-03T15:35:19.357Z,3.53
2019-05-03T15:37:48.560Z,8.40
2019-05-03T15:40:17.930Z,3.50
2019-05-03T15:42:54.656Z,4.63
2019-05-03T15:45:58.406Z,6.67
2019-05-03T15:48:35.061Z,3.47
2019-05-03T15:51:04.809Z,3.07
2019-05-03T15:53:35.346Z,7.57
2019-05-03T15:56:05.364Z,6.90
2019-05-03T15:58:34.782Z,6.50
2019-05-03T16:01:04.718Z,4.03
2019-05-03T16:03:35.758Z,6.43
2019-05-03T16:06:05.423Z,4.83
2019-05-03T16:08:34.723Z,4.10
2019-05-03T16:11:05.381Z,3.97
2019-05-03T16:13:35.544Z,5.67
2019-05-03T16:16:06.461Z,4.03
2019-05-03T16:18:35.822Z,2.97
2019-05-03T16:21:05.114Z,4.60
2019-05-03T16:23:34.442Z,6.17
2019-05-03T16:26:04.985Z,5.67
2019-05-03T16:28:51.238Z,4.60
2019-05-03T16:31:22.058Z,9.07
2019-05-03T16:33:51.303Z,4.10
2019-05-03T16:36:20.568Z,6.40
2019-05-03T16:38:49.932Z,6.70
2019-05-03T16:41:19.284Z,8.93
2019-05-03T16:44:07.607Z,6.87
2019-05-03T16:46:37.026Z,10.47
2019-05-03T16:49:06.528Z,4.00
2019-05-03T16:51:36.018Z,4.60
2019-05-03T16:54:05.390Z,6.97
2019-05-03T16:56:35.298Z,6.53
2019-05-03T16:59:05.759Z,6.47
2019-05-03T17:01:35.402Z,6.20
2019-05-03T17:04:30.286Z,6.20
2019-05-03T17:07:15.251Z,5.37
2019-05-03T17:10:07.502Z,7.63
2019-05-03T17:12:37.117Z,6.07
2019-05-03T17:15:07.402Z,6.47
2019-05-03T17:17:38.796Z,9.27
2019-05-03T17:20:08.505Z,8.20
2019-05-03T17:22:37.800Z,3.90
2019-05-03T17:25:07.162Z,3.73
2019-05-03T17:27:36.497Z,3.87
2019-05-03T17:30:06.415Z,6.60
2019-05-03T17:32:35.722Z,5.87
2019-05-03T17:35:05.415Z,5.73
2019-05-03T17:37:34.919Z,7.00
2019-05-03T17:40:21.689Z,6.53
2019-05-03T17:43:14.620Z,4.23
2019-05-03T17:45:47.553Z,8.57
2019-05-03T17:48:16.952Z,25.37
2019-05-03T17:50:46.205Z,5.00
2019-05-03T17:53:54.572Z,4.97
2019-05-03T17:56:28.744Z,4.83
2019-05-03T17:59:04.626Z,5.53
2019-05-03T18:01:53.022Z,7.30
2019-05-03T18:04:32.647Z,6.40
2019-05-03T18:07:24.293Z,6.37
2019-05-03T18:09:55.365Z,4.97
2019-05-03T18:12:24.878Z,4.90
2019-05-03T18:14:55.406Z,5.70
2019-05-03T18:17:24.949Z,6.93
2019-05-03T18:19:55.316Z,8.30
2019-05-03T18:22:24.807Z,6.47
2019-05-03T18:24:54.660Z,4.67
2019-05-03T18:27:25.053Z,5.67
2019-05-03T18:29:55.441Z,12.00
2019-05-03T18:32:25.164Z,8.43
2019-05-03T18:34:54.784Z,7.47
2019-05-03T18:37:24.531Z,10.00
2019-05-03T18:39:54.635Z,9.70
2019-05-03T18:42:35.200Z,20.37
2019-05-03T18:45:11.564Z,9.17
2019-05-03T18:47:40.827Z,14.00
2019-05-03T18:50:10.354Z,9.00
2019-05-03T18:52:39.614Z,5.93
2019-05-03T18:55:08.954Z,35.37
2019-05-03T18:57:38.373Z,5.53
2019-05-03T19:00:08.994Z,6.40
2019-05-03T19:02:38.477Z,4.47
2019-05-03T19:05:08.344Z,8.17
2019-05-03T19:07:54.684Z,7.33
2019-05-03T19:10:44.517Z,14.47
2019-05-03T19:13:36.358Z,9.20
2019-05-03T19:16:24.644Z,10.90
2019-05-03T19:18:55.021Z,6.70
2019-05-03T19:21:24.476Z,9.93
2019-05-03T19:23:53.710Z,6.47
2019-05-03T19:26:24.774Z,6.00
2019-05-03T19:28:54.973Z,6.20
2019-05-03T19:31:25.222Z,6.67
2019-05-03T19:33:55.080Z,9.37
2019-05-03T19:36:24.537Z,12.97
2019-05-03T19:38:54.609Z,7.07
2019-05-03T19:41:25.202Z,9.93
2019-05-03T19:43:55.024Z,7.83
2019-05-03T19:46:24.817Z,10.03
2019-05-03T19:48:54.696Z,6.07
2019-05-03T19:51:24.223Z,7.60
2019-05-03T19:53:55.260Z,11.40
2019-05-03T19:56:25.674Z,7.10
2019-05-03T19:59:04.672Z,11.53
2019-05-03T20:02:08.106Z,8.90
2019-05-03T20:05:00.726Z,10.37
2019-05-03T20:07:39.067Z,6.70
2019-05-03T20:10:08.952Z,6.40
2019-05-03T20:12:38.218Z,7.23
2019-05-03T20:15:07.559Z,7.77
2019-05-03T20:17:36.856Z,7.70
2019-05-03T20:20:06.807Z,8.40
2019-05-03T20:22:35.967Z,7.17
2019-05-03T20:25:05.387Z,9.20
2019-05-03T20:27:35.174Z,11.00
2019-05-03T20:30:06.479Z,8.80
2019-05-03T20:32:35.915Z,12.00
2019-05-03T20:35:16.586Z,20.90
2019-05-03T20:37:36.605Z,41.53
2019-05-03T20:40:06.669Z,13.03
2019-05-03T20:43:07.114Z,10.33
2019-05-03T20:45:54.746Z,11.97
2019-05-03T20:48:24.987Z,11.33
2019-05-03T20:50:57.478Z,10.93
2019-05-03T20:53:26.764Z,11.80
2019-05-03T20:55:56.051Z,13.27
2019-05-03T20:58:25.317Z,9.80
2019-05-03T21:00:54.714Z,11.90
2019-05-03T21:03:24.795Z,14.27
2019-05-03T21:05:55.277Z,9.77
2019-05-03T21:08:25.488Z,10.43
2019-05-03T21:10:55.227Z,11.50
2019-05-03T21:13:25.247Z,13.37
2019-05-03T21:16:30.097Z,14.90
2019-05-03T21:19:08.018Z,11.30
2019-05-03T21:22:02.553Z,13.90
2019-05-03T21:24:45.347Z,13.33
2019-05-03T21:27:14.603Z,15.73
2019-05-03T21:29:51.750Z,14.50
2019-05-03T21:32:21.174Z,12.23
2019-05-03T21:34:50.926Z,14.73
2019-05-03T21:37:20.225Z,13.90
2019-05-03T21:39:49.496Z,15.20
2019-05-03T21:42:18.805Z,16.33
2019-05-03T21:44:48.123Z,13.90
2019-05-03T21:47:51.771Z,12.93
2019-05-03T21:50:21.551Z,11.70
2019-05-03T21:52:50.909Z,11.77
2019-05-03T21:55:20.218Z,14.63
2019-05-03T21:57:49.586Z,14.60
2019-05-03T22:00:19.181Z,12.13
2019-05-03T22:02:48.582Z,12.90
2019-05-03T22:05:18.015Z,15.27
2019-05-03T22:07:47.388Z,15.10
2019-05-03T22:10:16.842Z,13.53
2019-05-03T22:12:46.185Z,11.90
2019-05-03T22:15:26.495Z,12.07
2019-05-03T22:18:11.483Z,11.07
2019-05-03T22:20:48.428Z,11.67
2019-05-03T22:23:38.502Z,13.70
2019-05-03T22:26:07.994Z,11.80
2019-05-03T22:28:37.430Z,11.93
2019-05-03T22:31:06.948Z,10.57
2019-05-03T22:33:36.327Z,11.30
2019-05-03T22:36:08.986Z,13.43
2019-05-03T22:38:38.519Z,13.10
2019-05-03T22:41:08.029Z,10.13
2019-05-03T22:43:37.429Z,10.90
2019-05-03T22:46:06.790Z,11.97
2019-05-03T22:48:36.122Z,17.23
2019-05-03T22:51:05.402Z,12.47
2019-05-03T22:53:34.657Z,14.20
2019-05-03T22:56:04.892Z,12.80
2019-05-03T22:58:35.454Z,15.40
2019-05-03T23:01:04.870Z,12.97
2019-05-03T23:03:44.648Z,12.43
2019-05-03T23:06:21.985Z,13.23
2019-05-03T23:08:44.886Z,12.17
2019-05-03T23:11:15.022Z,15.13
2019-05-03T23:13:47.331Z,14.07
2019-05-03T23:16:16.592Z,14.07
2019-05-03T23:18:45.730Z,18.57
2019-05-03T23:21:20.385Z,15.70
2019-05-03T23:23:50.631Z,12.13
2019-05-03T23:26:19.925Z,14.63
2019-05-03T23:28:49.280Z,16.90
2019-05-03T23:31:18.542Z,16.77
2019-05-03T23:33:47.730Z,16.77
2019-05-03T23:36:16.928Z,16.77
2019-05-03T23:38:46.166Z,14.27
2019-05-03T23:41:15.467Z,12.53
2019-05-03T23:43:45.065Z,13.20
2019-05-03T23:46:16.275Z,11.57
2019-05-03T23:48:45.585Z,14.83
2019-05-03T23:51:32.467Z,12.97
2019-05-03T23:54:02.779Z,14.80
2019-05-03T23:56:32.139Z,20.40
2019-05-03T23:59:01.400Z,15.07
